Glen Arbor, Michigan
Current Conditions -  °F | °C
As of 3:53 AM on Wednesday 22 Oct 2014 (Local Time) from KFKS Reporting Station
Clear Clear  
Wind Chill: 29°   Ceiling: Unl
Heat Index: 29°   Visibility: 10mi
Dew Point: 27°   Wind: 0mph
Humidity: 90%   Direction: NA
Pressure: 30.34"   Gusts: NA
Location:  44.9°N, 85.99°W
Report Text: KFKS 220753Z AUTO 00000KT 10SM CLR M01/M03 A3034 RMK AO2 T10141029
Loading
Personal Weather Stations






























Interactive Weather Map
Tropical Storm Tracking
New forecast layout! Learn more

10-Day Weather Forecast

Advertisements
Track Severe Weather on mobile